Time;durP1;ratioP1;P1;durP2;ratioP2;P2;SDS_P1;SDS_P2;PMS_P1;PMS_P2;Temp;Humidity;BMP_temperature;BMP_pressure;BME280_temperature;BME280_humidity;BME280_pressure;Samples;Min_cycle;Max_cycle;Signal;HPM_P1;HPM_P2
2023/08/09 00:01:24;;;;;;;0.00;0.00;;;18.40;93.90;;;;;;5026200;28;20022;-77
2023/08/09 00:27:08;;;;;;;0.00;0.00;;;18.80;93.10;;;;;;5907695;23;20049;-76
2023/08/09 00:29:35;;;;;;;0.00;0.00;;;18.90;93.60;;;;;;5026180;28;20033;-76
2023/08/09 00:32:01;;;;;;;0.00;0.00;;;18.80;96.60;;;;;;5009385;28;20045;-77
2023/08/09 00:34:30;;;;;;;0.00;0.00;;;18.80;99.10;;;;;;5009013;28;20018;-78
2023/08/09 00:36:55;;;;;;;0.00;0.00;;;18.60;99.90;;;;;;5017007;28;20048;-75
2023/08/09 00:39:21;;;;;;;0.00;0.00;;;18.30;99.90;;;;;;5005410;28;20034;-77
2023/08/09 00:44:23;;;;;;;0.00;0.00;;;17.90;99.90;;;;;;5221916;23;20650;-75
2023/08/09 00:46:49;;;;;;;0.00;0.00;;;17.70;99.80;;;;;;5026456;28;20060;-76
2023/08/09 00:51:51;;;;;;;0.00;0.00;;;17.50;99.90;;;;;;5053845;22;20046;-76
2023/08/09 00:54:18;;;;;;;0.00;0.00;;;17.50;99.90;;;;;;5008794;28;20106;-77
2023/08/09 00:56:45;;;;;;;0.00;0.00;;;17.40;99.90;;;;;;5025809;28;20041;-77
2023/08/09 00:59:11;;;;;;;0.00;0.00;;;17.30;99.90;;;;;;5024797;28;20014;-77
2023/08/09 01:01:38;;;;;;;0.00;0.00;;;17.20;99.90;;;;;;5009278;28;20010;-78
2023/08/09 01:09:33;;;;;;;0.00;0.00;;;17.40;99.90;;;;;;6072329;22;20238;-77
2023/08/09 01:12:12;;;;;;;0.00;0.00;;;17.50;99.90;;;;;;5001699;28;20032;-77
2023/08/09 01:14:41;;;;;;;0.00;0.00;;;17.00;99.90;;;;;;4990148;28;20021;-79
2023/08/09 01:17:11;;;;;;;0.00;0.00;;;17.30;99.90;;;;;;5003094;28;20064;-77
2023/08/09 01:19:46;;;;;;;0.00;0.00;;;17.30;99.90;;;;;;5011342;28;20006;-77
2023/08/09 01:22:17;;;;;;;0.00;0.00;;;17.30;99.90;;;;;;5009501;28;20022;-76
2023/08/09 01:24:44;;;;;;;0.00;0.00;;;17.30;99.90;;;;;;5006667;28;20026;-77
2023/08/09 01:27:10;;;;;;;0.00;0.00;;;17.20;99.90;;;;;;4989975;28;20015;-76
2023/08/09 01:29:37;;;;;;;;;;;16.80;99.90;;;;;;5012671;28;20034;-77
2023/08/09 01:32:03;;;;;;;0.00;0.00;;;17.10;99.90;;;;;;5029559;28;19909;-77
2023/08/09 01:34:30;;;;;;;0.00;0.00;;;16.40;99.90;;;;;;5011931;28;20026;-78
2023/08/09 01:37:00;;;;;;;0.17;0.10;;;16.50;99.90;;;;;;5003545;28;20082;-77
2023/08/09 01:39:32;;;;;;;0.00;0.00;;;17.00;99.90;;;;;;5029835;28;20013;-77
2023/08/09 01:41:59;;;;;;;0.00;0.00;;;17.00;99.90;;;;;;4995590;28;20030;-78
2023/08/09 01:44:29;;;;;;;0.00;0.00;;;17.00;99.90;;;;;;5007318;28;20050;-75
2023/08/09 01:46:56;;;;;;;0.00;0.00;;;17.00;99.90;;;;;;5029552;28;20073;-76
2023/08/09 01:49:23;;;;;;;0.00;0.00;;;16.90;99.90;;;;;;5025156;28;20037;-77
2023/08/09 01:51:51;;;;;;;0.00;0.00;;;16.90;99.90;;;;;;5013353;28;20018;-76
2023/08/09 02:09:59;;;;;;;0.00;0.00;;;17.10;99.90;;;;;;6158639;23;20126;-77
2023/08/09 02:12:25;;;;;;;0.00;0.00;;;17.10;99.90;;;;;;5027335;28;20022;-77
2023/08/09 02:14:51;;;;;;;0.00;0.00;;;17.30;99.90;;;;;;5011473;28;20029;-77
2023/08/09 02:17:17;;;;;;;;;;;17.40;99.90;;;;;;5025757;28;20041;-76
2023/08/09 02:19:43;;;;;;;0.00;0.00;;;17.40;99.80;;;;;;5025702;28;19910;-77
2023/08/09 02:22:10;;;;;;;0.00;0.00;;;17.70;99.80;;;;;;5029358;28;20017;-76
2023/08/09 02:24:36;;;;;;;0.00;0.00;;;17.70;99.20;;;;;;5024966;28;20034;-77
2023/08/09 02:27:02;;;;;;;;;;;17.80;99.20;;;;;;5736043;22;20056;-77
2023/08/09 02:29:28;;;;;;;3.35;0.20;;;17.80;99.00;;;;;;5023874;28;19917;-76
2023/08/09 02:31:54;;;;;;;0.00;0.00;;;17.80;99.10;;;;;;5019595;28;20034;-77
2023/08/09 02:34:20;;;;;;;0.00;0.00;;;17.80;99.00;;;;;;5029140;28;20032;-77
2023/08/09 02:36:46;;;;;;;0.00;0.00;;;17.80;99.00;;;;;;5020761;28;20030;-77
2023/08/09 02:39:12;;;;;;;0.00;0.00;;;17.90;99.10;;;;;;5025356;28;20081;-77
2023/08/09 02:41:42;;;;;;;0.00;0.00;;;17.90;99.10;;;;;;5028691;28;20161;-76
2023/08/09 02:44:08;;;;;;;0.00;0.00;;;17.90;99.10;;;;;;5007687;28;20045;-78
2023/08/09 02:46:34;;;;;;;0.00;0.00;;;17.80;99.20;;;;;;5027829;28;20021;-77
2023/08/09 02:49:00;;;;;;;0.00;0.00;;;17.80;99.30;;;;;;5007661;28;20029;-77
2023/08/09 03:01:46;;;;;;;0.00;0.00;;;18.00;98.40;;;;;;5884564;23;20046;-78
2023/08/09 03:11:58;;;;;;;0.00;0.00;;;18.00;98.60;;;;;;5597473;22;20049;-76
2023/08/09 03:14:24;;;;;;;0.00;0.00;;;18.00;98.40;;;;;;5028133;28;20069;-76
2023/08/09 03:16:50;;;;;;;0.00;0.00;;;18.00;98.70;;;;;;5013876;28;20029;-76
2023/08/09 03:19:16;;;;;;;0.00;0.00;;;18.00;98.50;;;;;;5031921;28;20026;-78
2023/08/09 03:42:25;;;;;;;0.00;0.00;;;17.80;98.50;;;;;;5081119;22;20041;-77
2023/08/09 03:44:51;;;;;;;0.00;0.00;;;17.80;98.70;;;;;;5026912;28;20080;-77
2023/08/09 03:47:17;;;;;;;0.00;0.00;;;17.80;98.80;;;;;;5026541;28;20034;-77
2023/08/09 03:49:46;;;;;;;0.00;0.00;;;17.70;99.00;;;;;;5009617;28;20087;-76
2023/08/09 03:52:11;;;;;;;0.00;0.00;;;17.90;99.20;;;;;;5023375;28;20038;-77
2023/08/09 03:54:37;;;;;;;0.00;0.00;;;17.70;99.10;;;;;;5027517;28;20033;-77
2023/08/09 03:57:04;;;;;;;0.00;0.00;;;17.70;99.10;;;;;;5022818;28;20029;-77
2023/08/09 03:59:30;;;;;;;0.00;0.00;;;17.80;99.10;;;;;;5027259;28;20018;-76
2023/08/09 04:01:56;;;;;;;0.00;0.00;;;17.80;98.90;;;;;;5008911;28;20026;-78
2023/08/09 04:09:33;;;;;;;0.00;0.00;;;18.00;98.70;;;;;;5994777;23;20046;-78
2023/08/09 04:17:09;;;;;;;0.00;0.00;;;18.10;98.40;;;;;;6208257;22;20000;-77
2023/08/09 04:19:35;;;;;;;0.00;0.00;;;18.10;98.50;;;;;;5002485;28;20093;-77
2023/08/09 04:22:01;;;;;;;0.00;0.00;;;18.20;98.40;;;;;;5007419;28;20035;-77
2023/08/09 04:24:27;;;;;;;0.00;0.00;;;18.10;98.30;;;;;;5001979;28;20039;-76
2023/08/09 04:26:53;;;;;;;0.00;0.00;;;18.10;98.30;;;;;;4990142;28;20058;-77
2023/08/09 04:29:19;;;;;;;0.00;0.00;;;18.20;98.40;;;;;;5007824;28;20041;-76
2023/08/09 04:31:45;;;;;;;0.00;0.00;;;18.20;98.40;;;;;;4987657;28;20042;-76
2023/08/09 04:34:13;;;;;;;0.00;0.00;;;18.30;98.20;;;;;;5001420;28;20018;-76
2023/08/09 04:36:39;;;;;;;0.00;0.00;;;18.30;98.20;;;;;;4986674;28;20030;-76
2023/08/09 04:39:08;;;;;;;0.00;0.00;;;18.30;98.30;;;;;;5007682;28;20068;-77
2023/08/09 04:41:35;;;;;;;0.00;0.00;;;18.20;98.20;;;;;;5006471;28;20018;-75
2023/08/09 04:44:01;;;;;;;0.00;0.00;;;18.30;98.30;;;;;;4986212;28;20037;-76
2023/08/09 04:46:27;;;;;;;0.00;0.00;;;18.30;98.40;;;;;;4989293;28;20034;-75
2023/08/09 04:48:53;;;;;;;0.00;0.00;;;18.40;98.30;;;;;;5006600;28;20038;-77
2023/08/09 04:51:19;;;;;;;0.00;0.00;;;18.20;98.50;;;;;;5006943;28;20025;-78
2023/08/09 04:53:45;;;;;;;0.00;0.00;;;18.30;98.70;;;;;;4991385;28;20260;-76
2023/08/09 04:56:11;;;;;;;0.00;0.00;;;18.50;98.90;;;;;;5010898;28;20407;-77
2023/08/09 04:58:38;;;;;;;0.10;0.10;;;18.50;98.90;;;;;;5011175;28;20010;-77
2023/08/09 05:01:04;;;;;;;0.00;0.00;;;18.30;98.70;;;;;;4984029;28;20038;-78
2023/08/09 05:03:29;;;;;;;0.00;0.00;;;18.60;99.20;;;;;;4983751;28;20037;-77
2023/08/09 05:05:55;;;;;;;0.00;0.00;;;18.60;99.90;;;;;;4984214;28;20034;-77
2023/08/09 05:08:21;;;;;;;0.00;0.00;;;18.60;99.90;;;;;;4967455;28;20079;-78
2023/08/09 05:10:47;;;;;;;0.00;0.00;;;18.60;99.90;;;;;;4969838;28;20038;-79
2023/08/09 05:13:12;;;;;;;0.00;0.00;;;18.70;99.90;;;;;;4988325;28;20042;-80
2023/08/09 05:15:38;;;;;;;0.00;0.00;;;18.60;99.90;;;;;;4989136;28;20026;-79
2023/08/09 05:18:04;;;;;;;0.00;0.00;;;18.60;99.90;;;;;;4977705;28;20042;-80
2023/08/09 05:20:30;;;;;;;0.00;0.00;;;18.60;99.90;;;;;;5002930;28;20045;-77
2023/08/09 05:22:55;;;;;;;0.00;0.00;;;18.40;99.90;;;;;;5006614;28;20031;-78
2023/08/09 05:25:21;;;;;;;0.00;0.00;;;18.10;99.90;;;;;;5003902;28;20010;-77
2023/08/09 05:27:48;;;;;;;0.00;0.00;;;17.90;99.90;;;;;;5003217;28;20034;-76
2023/08/09 05:30:18;;;;;;;0.00;0.00;;;17.70;99.90;;;;;;5007273;28;20631;-78
2023/08/09 05:32:44;;;;;;;0.00;0.00;;;17.60;99.90;;;;;;5003384;28;20906;-77
2023/08/09 05:35:10;;;;;;;0.00;0.00;;;17.60;99.90;;;;;;5005091;28;20049;-80
2023/08/09 05:37:37;;;;;;;0.00;0.00;;;17.50;99.90;;;;;;4988736;28;20065;-80
2023/08/09 05:40:03;;;;;;;0.00;0.00;;;17.50;99.90;;;;;;4995168;28;20027;-81
2023/08/09 05:42:29;;;;;;;0.00;0.00;;;17.50;99.90;;;;;;5005111;28;20091;-78
2023/08/09 05:44:54;;;;;;;0.00;0.00;;;17.50;99.90;;;;;;5003723;28;20038;-75
2023/08/09 05:47:20;;;;;;;0.00;0.00;;;17.60;99.90;;;;;;5003436;28;20026;-78
2023/08/09 05:49:46;;;;;;;0.00;0.00;;;17.60;99.90;;;;;;4987175;28;20099;-80
2023/08/09 05:52:11;;;;;;;0.00;0.00;;;17.60;99.90;;;;;;5003120;28;20037;-78
2023/08/09 05:54:37;;;;;;;0.00;0.00;;;17.60;99.90;;;;;;5003045;28;20084;-77
2023/08/09 05:57:03;;;;;;;0.00;0.00;;;17.50;99.90;;;;;;5003501;28;20622;-77
2023/08/09 05:59:29;;;;;;;0.00;0.00;;;17.60;99.90;;;;;;5000063;28;20022;-76
2023/08/09 06:01:56;;;;;;;0.00;0.00;;;17.60;99.90;;;;;;4989086;28;20026;-75
2023/08/09 06:04:22;;;;;;;0.00;0.00;;;17.60;99.90;;;;;;5002884;28;20022;-76
2023/08/09 06:06:47;;;;;;;0.00;0.00;;;17.50;99.90;;;;;;5005714;28;20018;-76
2023/08/09 06:09:13;;;;;;;0.00;0.00;;;17.40;99.90;;;;;;4999989;28;20034;-77
2023/08/09 06:11:39;;;;;;;0.00;0.00;;;17.30;99.90;;;;;;5001949;28;20014;-80
2023/08/09 06:14:06;;;;;;;0.00;0.00;;;17.30;99.90;;;;;;4986865;28;20282;-78
2023/08/09 06:16:34;;;;;;;0.00;0.00;;;17.40;99.90;;;;;;5005850;28;20030;-76
2023/08/09 06:19:00;;;;;;;0.10;0.03;;;17.50;99.90;;;;;;5005984;28;20049;-76
2023/08/09 06:21:26;;;;;;;0.10;0.10;;;17.50;99.90;;;;;;5003273;28;20031;-75
2023/08/09 06:23:51;;;;;;;0.00;0.00;;;17.50;99.90;;;;;;5005132;28;20089;-76
2023/08/09 06:26:17;;;;;;;0.00;0.00;;;17.60;99.90;;;;;;5006178;28;20018;-77
2023/08/09 06:28:43;;;;;;;0.00;0.00;;;17.70;99.90;;;;;;4988926;28;20034;-76
2023/08/09 06:31:08;;;;;;;0.00;0.00;;;17.70;99.90;;;;;;4998645;28;20034;-77
2023/08/09 06:33:41;;;;;;;0.00;0.00;;;17.60;99.90;;;;;;5002152;28;20042;-77
2023/08/09 06:36:08;;;;;;;0.08;0.08;;;17.60;99.90;;;;;;5004123;28;20077;-80
2023/08/09 06:38:34;;;;;;;0.00;0.00;;;17.60;99.90;;;;;;5004004;28;20026;-76
2023/08/09 06:40:59;;;;;;;0.00;0.00;;;17.40;99.90;;;;;;5006749;28;20362;-76
2023/08/09 06:43:25;;;;;;;0.00;0.00;;;17.30;99.90;;;;;;4985804;28;20034;-78
2023/08/09 06:45:52;;;;;;;0.00;0.00;;;17.40;99.90;;;;;;4985512;28;20333;-77
2023/08/09 06:48:17;;;;;;;0.00;0.00;;;17.40;99.90;;;;;;5002037;28;20030;-78
2023/08/09 06:50:43;;;;;;;0.00;0.00;;;17.50;99.90;;;;;;4995518;28;20027;-76
2023/08/09 06:53:09;;;;;;;0.00;0.00;;;17.70;99.90;;;;;;4990428;28;20038;-77
2023/08/09 06:55:35;;;;;;;0.57;0.00;;;17.80;99.90;;;;;;5003220;28;20029;-78
2023/08/09 06:58:00;;;;;;;0.00;0.00;;;17.90;99.90;;;;;;4989954;28;20018;-77
2023/08/09 07:00:26;;;;;;;0.00;0.00;;;17.90;99.90;;;;;;5009977;28;20026;-76
2023/08/09 07:02:52;;;;;;;0.00;0.00;;;17.80;99.90;;;;;;4991940;28;20057;-78
2023/08/09 07:05:21;;;;;;;0.00;0.00;;;18.00;99.90;;;;;;5003480;28;20466;-77
2023/08/09 07:07:51;;;;;;;0.10;0.10;;;18.20;99.90;;;;;;5007258;28;20073;-78
2023/08/09 07:10:17;;;;;;;0.00;0.00;;;18.40;99.90;;;;;;5004122;28;20145;-76
2023/08/09 07:12:43;;;;;;;0.00;0.00;;;18.50;99.90;;;;;;4990700;28;20038;-77
2023/08/09 07:15:10;;;;;;;0.00;0.00;;;18.50;99.90;;;;;;5006121;28;20028;-76
2023/08/09 07:17:37;;;;;;;0.00;0.00;;;18.50;99.90;;;;;;5003077;28;20030;-77
2023/08/09 07:20:07;;;;;;;0.00;0.00;;;18.60;99.90;;;;;;4990463;28;20045;-76
2023/08/09 07:22:34;;;;;;;0.00;0.00;;;18.60;99.90;;;;;;5002845;28;20033;-79
2023/08/09 07:25:00;;;;;;;0.00;0.00;;;18.60;99.90;;;;;;5003539;28;20343;-76
2023/08/09 07:27:26;;;;;;;0.00;0.00;;;18.30;99.90;;;;;;4991067;28;20050;-76
2023/08/09 07:29:53;;;;;;;0.00;0.00;;;18.30;99.90;;;;;;4989900;28;20018;-78
2023/08/09 07:32:18;;;;;;;0.00;0.00;;;18.40;99.90;;;;;;5003647;28;20029;-77
2023/08/09 07:34:44;;;;;;;0.00;0.00;;;18.40;99.90;;;;;;5007256;28;20038;-78
2023/08/09 07:37:10;;;;;;;0.00;0.00;;;18.50;99.90;;;;;;5007464;28;20074;-76
2023/08/09 07:39:36;;;;;;;0.00;0.00;;;18.60;99.90;;;;;;5237943;23;20083;-76
2023/08/09 07:42:02;;;;;;;0.00;0.00;;;18.60;99.90;;;;;;4987361;28;20042;-77
2023/08/09 07:44:28;;;;;;;;;;;18.70;99.90;;;;;;4986700;28;20038;-75
2023/08/09 07:46:54;;;;;;;0.00;0.00;;;18.80;99.90;;;;;;5005010;28;19989;-76
2023/08/09 07:49:20;;;;;;;;;;;18.80;99.90;;;;;;5001841;28;20035;-76
2023/08/09 07:51:46;;;;;;;0.00;0.00;;;18.80;99.90;;;;;;5006075;28;19920;-76
2023/08/09 07:54:12;;;;;;;0.00;0.00;;;18.90;99.90;;;;;;5000906;28;20101;-77
2023/08/09 07:56:38;;;;;;;0.00;0.00;;;18.80;99.90;;;;;;5001707;28;20037;-78
2023/08/09 07:59:06;;;;;;;0.00;0.00;;;18.90;99.90;;;;;;5002147;28;20026;-79
2023/08/09 08:01:33;;;;;;;0.00;0.00;;;19.00;99.90;;;;;;4985162;28;20017;-81
2023/08/09 08:03:59;;;;;;;0.00;0.00;;;19.00;99.90;;;;;;5002675;28;20014;-80
2023/08/09 08:06:25;;;;;;;0.00;0.00;;;19.00;99.90;;;;;;5001465;28;20308;-79
2023/08/09 08:08:51;;;;;;;0.00;0.00;;;19.20;99.90;;;;;;4983630;28;20049;-79
2023/08/09 08:11:17;;;;;;;0.00;0.00;;;19.30;99.90;;;;;;5000847;28;20029;-77
2023/08/09 08:13:43;;;;;;;1.02;0.43;;;19.20;99.90;;;;;;4989993;28;20038;-79
2023/08/09 08:16:08;;;;;;;0.00;0.00;;;19.30;99.90;;;;;;4978429;28;20146;-80
2023/08/09 08:18:34;;;;;;;0.00;0.00;;;19.70;99.90;;;;;;4976680;28;20041;-80
2023/08/09 08:21:01;;;;;;;0.00;0.00;;;19.10;99.90;;;;;;4975259;28;20034;-80
2023/08/09 08:23:27;;;;;;;0.00;0.00;;;18.80;99.90;;;;;;4989176;28;20220;-75
2023/08/09 08:25:55;;;;;;;0.00;0.00;;;18.60;99.90;;;;;;4992004;28;20030;-78
2023/08/09 08:28:21;;;;;;;0.00;0.00;;;18.70;99.90;;;;;;4991922;28;20093;-79
2023/08/09 08:30:47;;;;;;;0.08;0.08;;;18.90;99.90;;;;;;4976308;28;20026;-79
2023/08/09 08:33:13;;;;;;;;;;;19.20;99.90;;;;;;4995606;28;20026;-80
2023/08/09 08:35:43;;;;;;;0.00;0.00;;;19.30;99.90;;;;;;4990274;28;19913;-79
2023/08/09 08:38:10;;;;;;;0.00;0.00;;;19.50;99.90;;;;;;4993721;28;20037;-79
2023/08/09 08:40:36;;;;;;;0.00;0.00;;;19.50;99.90;;;;;;4999963;28;20107;-78
2023/08/09 08:43:02;;;;;;;0.00;0.00;;;19.50;99.90;;;;;;4999436;28;20026;-80
2023/08/09 08:45:28;;;;;;;;;;;19.70;99.90;;;;;;5001659;28;20034;-78
2023/08/09 08:47:53;;;;;;;0.00;0.00;;;19.70;99.90;;;;;;4978533;28;19972;-79
2023/08/09 08:50:19;;;;;;;0.00;0.00;;;19.70;99.90;;;;;;4975516;28;20034;-78
2023/08/09 08:52:48;;;;;;;0.00;0.00;;;19.60;99.90;;;;;;4989048;28;20018;-80
2023/08/09 08:55:15;;;;;;;0.00;0.00;;;19.60;99.90;;;;;;4995593;28;20078;-80
2023/08/09 08:57:42;;;;;;;0.00;0.00;;;19.40;99.90;;;;;;4988709;28;20026;-80
2023/08/09 09:00:16;;;;;;;0.00;0.00;;;19.20;99.90;;;;;;4972595;28;20753;-80
2023/08/09 09:02:43;;;;;;;0.00;0.00;;;19.30;99.90;;;;;;4992895;28;20038;-79
2023/08/09 09:05:10;;;;;;;0.00;0.00;;;19.20;99.90;;;;;;4989840;28;20023;-78
2023/08/09 09:07:37;;;;;;;0.00;0.00;;;19.20;99.90;;;;;;4979293;28;20015;-78
2023/08/09 09:10:09;;;;;;;0.00;0.00;;;19.10;99.90;;;;;;4992616;28;20026;-80
2023/08/09 09:12:36;;;;;;;0.00;0.00;;;19.00;99.90;;;;;;4992877;28;20077;-78
2023/08/09 09:15:04;;;;;;;0.00;0.00;;;18.80;99.90;;;;;;4975792;28;20038;-80
2023/08/09 09:17:31;;;;;;;0.00;0.00;;;18.60;99.90;;;;;;4976916;28;20029;-79
2023/08/09 09:19:56;;;;;;;0.00;0.00;;;18.40;99.90;;;;;;4975790;28;20056;-77
2023/08/09 09:22:29;;;;;;;0.00;0.00;;;18.00;99.90;;;;;;4994579;28;20054;-78
2023/08/09 09:24:59;;;;;;;0.00;0.00;;;18.30;99.90;;;;;;4993196;28;20096;-79
2023/08/09 09:27:30;;;;;;;0.00;0.00;;;18.20;99.90;;;;;;4996301;28;20077;-78
2023/08/09 09:30:12;;;;;;;0.00;0.00;;;18.10;99.90;;;;;;4995840;28;20058;-80
2023/08/09 09:32:51;;;;;;;0.00;0.00;;;17.30;99.90;;;;;;4990571;28;20026;-79
2023/08/09 09:35:21;;;;;;;0.00;0.00;;;18.10;99.90;;;;;;4977615;28;20031;-79
2023/08/09 09:37:47;;;;;;;0.00;0.00;;;18.20;99.90;;;;;;4991236;28;20097;-77
2023/08/09 09:40:25;;;;;;;0.00;0.00;;;18.10;99.90;;;;;;4993016;28;20603;-80
2023/08/09 09:42:55;;;;;;;0.00;0.00;;;18.10;99.90;;;;;;4978992;28;20026;-78
2023/08/09 09:45:26;;;;;;;0.00;0.00;;;18.00;99.90;;;;;;4992992;28;20030;-80
2023/08/09 09:47:57;;;;;;;0.00;0.00;;;18.00;99.90;;;;;;4971967;28;20046;-78
2023/08/09 09:50:27;;;;;;;0.00;0.00;;;18.00;99.90;;;;;;4991882;28;20033;-80
2023/08/09 09:52:54;;;;;;;0.00;0.00;;;18.00;99.90;;;;;;4973160;28;20073;-78
2023/08/09 09:55:27;;;;;;;0.00;0.00;;;18.00;99.90;;;;;;4970505;28;20090;-79
2023/08/09 09:57:54;;;;;;;0.00;0.00;;;18.00;99.90;;;;;;4974832;28;20102;-80
2023/08/09 10:00:21;;;;;;;0.00;0.00;;;18.00;99.90;;;;;;4973050;28;20137;-80
2023/08/09 10:02:50;;;;;;;0.00;0.00;;;18.00;99.90;;;;;;4995608;28;20022;-80
2023/08/09 10:05:23;;;;;;;0.00;0.00;;;18.00;99.90;;;;;;4959577;28;20061;-79
2023/08/09 10:07:50;;;;;;;0.00;0.00;;;18.00;99.90;;;;;;4979321;28;20087;-80
2023/08/09 10:10:17;;;;;;;0.00;0.00;;;17.90;99.90;;;;;;4994475;28;20093;-80
2023/08/09 10:12:51;;;;;;;0.00;0.00;;;17.90;99.90;;;;;;5000228;28;20370;-79
2023/08/09 10:15:21;;;;;;;0.00;0.00;;;17.90;99.90;;;;;;4995669;28;20026;-80
2023/08/09 10:17:51;;;;;;;0.10;0.10;;;17.90;99.90;;;;;;4981188;28;20037;-80
2023/08/09 10:20:17;;;;;;;0.00;0.00;;;18.00;99.90;;;;;;4995295;28;20030;-79
2023/08/09 10:22:46;;;;;;;0.00;0.00;;;18.00;99.90;;;;;;4998508;28;20030;-77
2023/08/09 10:25:13;;;;;;;0.00;0.00;;;18.00;99.90;;;;;;4994790;28;20097;-80
2023/08/09 10:27:50;;;;;;;0.00;0.00;;;18.10;99.90;;;;;;4999823;28;20366;-80
2023/08/09 10:30:19;;;;;;;;;;;18.30;99.90;;;;;;4995563;28;20250;-80
2023/08/09 10:33:03;;;;;;;0.00;0.00;;;18.40;99.90;;;;;;4997685;28;19916;-80
2023/08/09 10:35:51;;;;;;;0.00;0.00;;;18.50;99.90;;;;;;4980961;28;20042;-81
2023/08/09 10:38:40;;;;;;;0.00;0.00;;;18.50;99.90;;;;;;5000439;28;20053;-80
2023/08/09 10:41:12;;;;;;;0.00;0.00;;;18.50;99.90;;;;;;4965434;28;20047;-79
2023/08/09 10:43:38;;;;;;;0.00;0.00;;;18.50;99.90;;;;;;4997160;28;20031;-80
2023/08/09 10:46:24;;;;;;;0.00;0.00;;;18.50;99.90;;;;;;4979842;28;20034;-77
2023/08/09 10:48:51;;;;;;;0.00;0.00;;;18.30;99.90;;;;;;5000479;28;20034;-77
2023/08/09 10:51:22;;;;;;;0.00;0.00;;;18.30;99.90;;;;;;5000096;28;20113;-78
2023/08/09 10:54:05;;;;;;;0.00;0.00;;;18.30;99.90;;;;;;4980421;28;20493;-79
2023/08/09 10:56:44;;;;;;;0.00;0.00;;;18.30;99.90;;;;;;5005911;28;20041;-76
2023/08/09 10:59:15;;;;;;;0.00;0.00;;;18.40;99.90;;;;;;5008416;28;20014;-79
2023/08/09 11:01:42;;;;;;;0.00;0.00;;;18.50;99.90;;;;;;4986270;28;20026;-80
2023/08/09 11:04:12;;;;;;;0.00;0.00;;;18.60;99.90;;;;;;4987213;28;20053;-76
2023/08/09 11:06:43;;;;;;;0.00;0.00;;;18.60;99.90;;;;;;4982747;28;20025;-78
2023/08/09 11:09:11;;;;;;;0.00;0.00;;;18.50;99.90;;;;;;5003450;28;20030;-78
2023/08/09 11:11:39;;;;;;;0.00;0.00;;;18.60;99.90;;;;;;4981050;28;20040;-78
2023/08/09 11:14:05;;;;;;;0.00;0.00;;;18.60;99.90;;;;;;4968168;28;20026;-77
2023/08/09 11:16:31;;;;;;;0.00;0.00;;;18.60;99.90;;;;;;4985405;28;20023;-76
2023/08/09 11:19:12;;;;;;;0.00;0.00;;;18.60;99.90;;;;;;5001202;28;20034;-76
2023/08/09 11:21:38;;;;;;;0.00;0.00;;;18.50;99.90;;;;;;4960255;28;20037;-78
2023/08/09 11:24:07;;;;;;;0.50;0.47;;;18.50;99.90;;;;;;4982927;28;20023;-78
2023/08/09 11:26:33;;;;;;;0.00;0.00;;;18.30;99.90;;;;;;4983156;28;20089;-75
2023/08/09 11:29:04;;;;;;;0.00;0.00;;;18.30;99.90;;;;;;5003470;28;20022;-77
2023/08/09 11:31:32;;;;;;;0.00;0.00;;;18.20;99.90;;;;;;5003066;28;20115;-80
2023/08/09 11:33:59;;;;;;;0.05;0.00;;;18.10;99.90;;;;;;5004281;28;20030;-81
2023/08/09 11:36:30;;;;;;;0.00;0.00;;;18.10;99.90;;;;;;5007230;28;20038;-77
2023/08/09 11:38:56;;;;;;;0.00;0.00;;;18.10;99.90;;;;;;4988421;28;20117;-78
2023/08/09 11:41:24;;;;;;;0.00;0.00;;;18.20;99.90;;;;;;4996359;28;20038;-76
2023/08/09 11:43:52;;;;;;;0.00;0.00;;;18.30;99.90;;;;;;4987574;28;20046;-77
2023/08/09 11:46:21;;;;;;;0.00;0.00;;;18.70;99.90;;;;;;4996789;28;20038;-80
2023/08/09 11:48:49;;;;;;;0.10;0.10;;;19.20;99.90;;;;;;5006108;28;20014;-80
2023/08/09 11:51:19;;;;;;;0.00;0.00;;;19.60;99.90;;;;;;5006451;28;20018;-77
2023/08/09 11:53:47;;;;;;;0.00;0.00;;;19.90;99.90;;;;;;5007011;28;20075;-78
2023/08/09 11:56:23;;;;;;;0.00;0.00;;;20.10;99.90;;;;;;4999287;28;20053;-78
2023/08/09 11:58:52;;;;;;;0.00;0.00;;;20.30;99.90;;;;;;5005358;28;20078;-77
2023/08/09 12:01:21;;;;;;;0.00;0.00;;;20.30;99.90;;;;;;5005224;28;20086;-77
2023/08/09 12:03:49;;;;;;;0.00;0.00;;;20.40;99.90;;;;;;4982923;28;20041;-77
2023/08/09 12:06:17;;;;;;;0.00;0.00;;;20.40;99.90;;;;;;5003769;28;20035;-78
2023/08/09 12:08:44;;;;;;;0.30;0.10;;;20.40;99.90;;;;;;4986494;28;20042;-77
2023/08/09 12:11:15;;;;;;;0.00;0.00;;;20.20;99.90;;;;;;5001570;28;20081;-77
2023/08/09 12:13:40;;;;;;;0.00;0.00;;;20.10;99.90;;;;;;5003489;28;20026;-78
2023/08/09 12:16:07;;;;;;;0.00;0.00;;;19.90;99.90;;;;;;5003128;28;20038;-79
2023/08/09 12:18:36;;;;;;;0.00;0.00;;;19.70;99.90;;;;;;5007392;28;20037;-77
2023/08/09 12:21:05;;;;;;;0.00;0.00;;;19.40;99.90;;;;;;5005883;28;20030;-76
2023/08/09 12:23:32;;;;;;;0.03;0.00;;;19.30;99.90;;;;;;5001736;28;20023;-78
2023/08/09 12:25:58;;;;;;;0.00;0.00;;;19.30;99.90;;;;;;5002436;28;20049;-79
2023/08/09 12:28:24;;;;;;;0.00;0.00;;;19.20;99.90;;;;;;5000547;28;20015;-78
2023/08/09 12:30:49;;;;;;;0.00;0.00;;;19.30;99.90;;;;;;4991554;28;20049;-78
2023/08/09 12:33:16;;;;;;;0.00;0.00;;;19.30;99.90;;;;;;5007176;28;20057;-77
2023/08/09 12:35:42;;;;;;;0.00;0.00;;;19.50;99.90;;;;;;5004872;28;20015;-77
2023/08/09 12:38:09;;;;;;;0.00;0.00;;;19.80;99.90;;;;;;5007724;28;20211;-77
2023/08/09 12:40:34;;;;;;;0.00;0.00;;;20.00;99.90;;;;;;5005134;28;20040;-77
2023/08/09 12:43:00;;;;;;;0.00;0.00;;;20.10;99.90;;;;;;4987021;28;20090;-77
2023/08/09 12:45:26;;;;;;;0.00;0.00;;;20.00;99.90;;;;;;5005076;28;20033;-77
2023/08/09 12:47:53;;;;;;;0.00;0.00;;;20.00;99.90;;;;;;4983576;28;20030;-79
2023/08/09 12:50:20;;;;;;;0.00;0.00;;;20.00;99.90;;;;;;5001696;28;20045;-77
2023/08/09 12:52:46;;;;;;;0.00;0.00;;;20.10;99.90;;;;;;4999464;28;20044;-77
2023/08/09 12:55:12;;;;;;;0.00;0.00;;;20.10;99.90;;;;;;5005695;28;20016;-77
2023/08/09 12:57:38;;;;;;;0.00;0.00;;;20.10;99.90;;;;;;4989698;28;20030;-77
2023/08/09 13:00:04;;;;;;;0.00;0.00;;;20.10;99.90;;;;;;5005480;28;20086;-77
2023/08/09 13:02:30;;;;;;;0.10;0.10;;;20.30;99.90;;;;;;4988381;28;20081;-77
2023/08/09 13:04:57;;;;;;;0.20;0.20;;;20.30;99.90;;;;;;5004943;28;20227;-77
2023/08/09 13:07:24;;;;;;;0.00;0.00;;;20.30;99.90;;;;;;5003421;28;20125;-77
2023/08/09 13:09:50;;;;;;;0.05;0.05;;;20.40;99.90;;;;;;5005053;28;20018;-77
2023/08/09 13:12:15;;;;;;;0.00;0.00;;;20.70;99.90;;;;;;5007154;28;20015;-78
2023/08/09 13:14:41;;;;;;;0.20;0.20;;;20.90;99.90;;;;;;5006256;28;20037;-77
2023/08/09 13:17:07;;;;;;;0.00;0.00;;;20.70;99.90;;;;;;5006567;28;20106;-77
2023/08/09 13:19:36;;;;;;;0.00;0.00;;;20.70;99.90;;;;;;5010568;28;20081;-78
2023/08/09 13:22:03;;;;;;;0.00;0.00;;;20.70;99.90;;;;;;5010215;28;20296;-76
2023/08/09 13:24:29;;;;;;;0.00;0.00;;;20.70;99.90;;;;;;5010637;28;20046;-78
2023/08/09 13:26:54;;;;;;;0.00;0.00;;;20.70;99.90;;;;;;5004465;28;20027;-77
2023/08/09 13:29:20;;;;;;;0.00;0.00;;;21.00;99.90;;;;;;5009455;28;20022;-77
2023/08/09 13:31:47;;;;;;;0.00;0.00;;;21.00;99.90;;;;;;5005982;28;20041;-77
2023/08/09 13:34:12;;;;;;;0.00;0.00;;;20.80;99.90;;;;;;5007828;28;20060;-77
2023/08/09 13:36:39;;;;;;;0.00;0.00;;;21.00;99.90;;;;;;5004760;28;20437;-77
2023/08/09 13:41:40;;;;;;;0.00;0.00;;;21.40;99.90;;;;;;5383365;23;20100;-78
2023/08/09 13:44:06;;;;;;;0.00;0.00;;;21.30;99.90;;;;;;5026866;28;20082;-78
2023/08/09 13:46:33;;;;;;;0.00;0.00;;;21.50;99.90;;;;;;5011105;28;20042;-77
2023/08/09 13:48:59;;;;;;;;;;;21.70;99.90;;;;;;5026271;28;20082;-78
2023/08/09 13:51:25;;;;;;;0.00;0.00;;;21.50;99.90;;;;;;5028345;28;20174;-77
2023/08/09 13:53:52;;;;;;;0.00;0.00;;;21.30;99.90;;;;;;5005993;28;20036;-77
2023/08/09 13:56:19;;;;;;;0.00;0.00;;;20.90;99.90;;;;;;5026002;28;20106;-79
2023/08/09 13:58:45;;;;;;;0.00;0.00;;;21.00;99.90;;;;;;5026582;28;20077;-77
2023/08/09 14:01:11;;;;;;;0.00;0.00;;;21.00;99.90;;;;;;5031860;28;20022;-76
2023/08/09 14:06:13;;;;;;;0.00;0.00;;;20.80;99.90;;;;;;5264289;23;20045;-78
2023/08/09 14:08:41;;;;;;;0.00;0.00;;;20.50;99.90;;;;;;5025141;28;20045;-77
2023/08/09 14:11:08;;;;;;;0.00;0.00;;;20.50;99.90;;;;;;5027539;28;20026;-77
2023/08/09 14:13:34;;;;;;;0.00;0.00;;;20.50;99.90;;;;;;5028455;28;20014;-77
2023/08/09 14:16:00;;;;;;;0.00;0.00;;;20.50;99.90;;;;;;5011576;28;20209;-78
2023/08/09 14:18:26;;;;;;;0.00;0.00;;;20.50;99.90;;;;;;5028710;28;20019;-79
2023/08/09 14:20:53;;;;;;;0.00;0.00;;;20.70;99.90;;;;;;5011380;28;20022;-78
2023/08/09 14:23:19;;;;;;;0.00;0.00;;;21.20;99.90;;;;;;5024549;28;20026;-77
2023/08/09 14:25:46;;;;;;;;;;;20.90;99.90;;;;;;5028109;28;20349;-77
2023/08/09 14:28:12;;;;;;;0.00;0.00;;;20.80;99.90;;;;;;5027354;28;20394;-77
2023/08/09 14:30:39;;;;;;;0.00;0.00;;;20.90;99.90;;;;;;5026123;28;20041;-77
2023/08/09 14:33:05;;;;;;;0.00;0.00;;;20.80;99.90;;;;;;5015260;28;20077;-78
2023/08/09 14:35:32;;;;;;;0.00;0.00;;;20.70;99.90;;;;;;5027731;28;20037;-77